EGNS - Ronaldsway Airport
Distance from station: E 5mi, 14km
Updated: 10/19/2017 8:50am
Partly Cloudy
Partly Cloudy
 Wind from ESE
Wind: ESE 20 mph , 31 km/h
Temperature: 55°F , 13°C
Dew Point: 54°F , 12°C
Humidity: 94%
Barometer: 29.38 inHg , 995 hPa
Clouds: Partly Cloudy
Visibility: 4 miles , 7 km
Cloud details: Partly Cloudy 600 ft
2017/10/19 15:50 EGNS 191550Z 11017KT 7000 SCT006 13/12 Q0995 TEMPO 3000 RADZ BKN005